Terminal Aerodrome Forecast
Issued by NWS Rapid City, SD

Home | Current Version | Previous Version | Graphics & Text | Print | Product List | Glossary On
Versions: 1 2 3 4 5 6 7 8 9 10 11 12
000
FTUS43 KUNR 252300
TAFRAP
TAF
KRAP 252320Z 2600/2624 35020G30KT P6SM SCT040
     FM260200 VRB05KT P6SM BKN120
     FM261500 34025G35KT P6SM BKN080=

USA.gov is the U.S. government's official web portal to all federal, state and local government web resources and services.